sensor_id;sensor_type;location;lat;lon;timestamp;temperature;humidity
4079;DHT22;2054;47.858;11.156;2023-12-04T03:46:14;-10.20;99.90
4079;DHT22;2054;47.858;11.156;2023-12-04T03:48:42;-10.20;99.90
4079;DHT22;2054;47.858;11.156;2023-12-04T03:51:10;-10.20;99.90
4079;DHT22;2054;47.858;11.156;2023-12-04T03:53:37;-10.20;99.90
4079;DHT22;2054;47.858;11.156;2023-12-04T03:56:05;-10.20;99.90
4079;DHT22;2054;47.858;11.156;2023-12-04T03:58:33;-10.20;99.90
4079;DHT22;2054;47.858;11.156;2023-12-04T04:01:00;-10.40;99.90
4079;DHT22;2054;47.858;11.156;2023-12-04T04:03:28;-10.30;99.90
4079;DHT22;2054;47.858;11.156;2023-12-04T04:05:55;-10.60;99.90
4079;DHT22;2054;47.858;11.156;2023-12-04T04:08:22;-10.50;99.90
4079;DHT22;2054;47.858;11.156;2023-12-04T04:10:49;-10.60;99.90
4079;DHT22;2054;47.858;11.156;2023-12-04T04:13:18;-10.60;99.90
4079;DHT22;2054;47.858;11.156;2023-12-04T04:15:44;-10.50;99.90
4079;DHT22;2054;47.858;11.156;2023-12-04T04:18:14;-10.50;99.90
4079;DHT22;2054;47.858;11.156;2023-12-04T04:20:42;-10.30;99.90
4079;DHT22;2054;47.858;11.156;2023-12-04T04:23:09;-10.20;99.90
4079;DHT22;2054;47.858;11.156;2023-12-04T04:25:37;-9.90;99.90
4079;DHT22;2054;47.858;11.156;2023-12-04T04:28:03;-10.20;99.90
4079;DHT22;2054;47.858;11.156;2023-12-04T04:30:30;-10.30;99.90
4079;DHT22;2054;47.858;11.156;2023-12-04T04:32:57;-10.30;99.90
4079;DHT22;2054;47.858;11.156;2023-12-04T04:35:24;-10.40;99.90
4079;DHT22;2054;47.858;11.156;2023-12-04T04:37:52;-10.40;99.90
4079;DHT22;2054;47.858;11.156;2023-12-04T04:40:19;-10.40;99.90
4079;DHT22;2054;47.858;11.156;2023-12-04T04:42:46;-10.30;99.90
4079;DHT22;2054;47.858;11.156;2023-12-04T04:45:14;-10.20;99.90
4079;DHT22;2054;47.858;11.156;2023-12-04T04:47:41;-10.10;99.90
4079;DHT22;2054;47.858;11.156;2023-12-04T04:50:09;-10.10;99.90
4079;DHT22;2054;47.858;11.156;2023-12-04T04:52:36;-9.70;99.90
4079;DHT22;2054;47.858;11.156;2023-12-04T04:55:07;-9.90;99.90
4079;DHT22;2054;47.858;11.156;2023-12-04T04:57:34;-9.90;99.90
4079;DHT22;2054;47.858;11.156;2023-12-04T05:00:01;-10.00;99.90
4079;DHT22;2054;47.858;11.156;2023-12-04T05:02:28;-10.00;99.90
4079;DHT22;2054;47.858;11.156;2023-12-04T05:04:57;-10.00;99.90
4079;DHT22;2054;47.858;11.156;2023-12-04T05:07:24;-10.00;99.90
4079;DHT22;2054;47.858;11.156;2023-12-04T05:09:51;-9.90;99.90
4079;DHT22;2054;47.858;11.156;2023-12-04T05:12:20;-9.90;99.90
4079;DHT22;2054;47.858;11.156;2023-12-04T05:14:47;-9.70;99.90
4079;DHT22;2054;47.858;11.156;2023-12-04T05:17:14;-9.90;99.90
4079;DHT22;2054;47.858;11.156;2023-12-04T05:19:43;-9.90;99.90
4079;DHT22;2054;47.858;11.156;2023-12-04T05:22:10;-9.90;99.90
4079;DHT22;2054;47.858;11.156;2023-12-04T05:24:37;-9.80;99.90
4079;DHT22;2054;47.858;11.156;2023-12-04T05:27:05;-9.80;99.90
4079;DHT22;2054;47.858;11.156;2023-12-04T05:29:34;-9.80;99.90
4079;DHT22;2054;47.858;11.156;2023-12-04T05:32:01;-9.60;99.90
4079;DHT22;2054;47.858;11.156;2023-12-04T05:34:28;-9.60;99.90
4079;DHT22;2054;47.858;11.156;2023-12-04T05:36:58;-9.60;99.90
4079;DHT22;2054;47.858;11.156;2023-12-04T05:39:25;-9.50;99.90
4079;DHT22;2054;47.858;11.156;2023-12-04T05:41:52;-9.50;99.90
4079;DHT22;2054;47.858;11.156;2023-12-04T05:44:19;-9.50;99.90
4079;DHT22;2054;47.858;11.156;2023-12-04T05:46:47;-9.50;99.90
4079;DHT22;2054;47.858;11.156;2023-12-04T05:49:14;-9.50;99.90
4079;DHT22;2054;47.858;11.156;2023-12-04T05:51:41;-9.50;99.90
4079;DHT22;2054;47.858;11.156;2023-12-04T05:54:10;-9.70;99.90
4079;DHT22;2054;47.858;11.156;2023-12-04T05:56:44;-9.70;99.90
4079;DHT22;2054;47.858;11.156;2023-12-04T05:59:13;-9.60;99.90
4079;DHT22;2054;47.858;11.156;2023-12-04T06:01:40;-9.60;99.90
4079;DHT22;2054;47.858;11.156;2023-12-04T06:04:08;-9.60;99.90
4079;DHT22;2054;47.858;11.156;2023-12-04T06:06:35;-9.50;99.90
4079;DHT22;2054;47.858;11.156;2023-12-04T06:09:02;-9.50;99.90
4079;DHT22;2054;47.858;11.156;2023-12-04T06:11:30;-9.50;99.90
4079;DHT22;2054;47.858;11.156;2023-12-04T06:14:00;-9.50;99.90
4079;DHT22;2054;47.858;11.156;2023-12-04T06:16:27;-9.40;99.90
4079;DHT22;2054;47.858;11.156;2023-12-04T06:18:54;-9.30;99.90
4079;DHT22;2054;47.858;11.156;2023-12-04T06:21:23;-9.30;99.90
4079;DHT22;2054;47.858;11.156;2023-12-04T06:23:50;-9.30;99.90
4079;DHT22;2054;47.858;11.156;2023-12-04T06:26:20;-9.30;99.90
4079;DHT22;2054;47.858;11.156;2023-12-04T06:28:47;-9.30;99.90
4079;DHT22;2054;47.858;11.156;2023-12-04T06:31:15;-9.30;99.90
4079;DHT22;2054;47.858;11.156;2023-12-04T06:33:42;-9.30;99.90
4079;DHT22;2054;47.858;11.156;2023-12-04T06:36:11;-9.20;99.90
4079;DHT22;2054;47.858;11.156;2023-12-04T06:38:41;-9.20;99.90
4079;DHT22;2054;47.858;11.156;2023-12-04T06:41:09;-9.40;99.90
4079;DHT22;2054;47.858;11.156;2023-12-04T06:43:37;-9.40;99.90
4079;DHT22;2054;47.858;11.156;2023-12-04T06:46:05;-9.40;99.90
4079;DHT22;2054;47.858;11.156;2023-12-04T06:48:32;-9.30;99.90
4079;DHT22;2054;47.858;11.156;2023-12-04T06:51:00;-9.30;99.90
4079;DHT22;2054;47.858;11.156;2023-12-04T06:53:26;-9.30;99.90
4079;DHT22;2054;47.858;11.156;2023-12-04T06:55:55;-9.30;99.90
4079;DHT22;2054;47.858;11.156;2023-12-04T06:58:22;-9.40;99.90
4079;DHT22;2054;47.858;11.156;2023-12-04T07:00:49;-9.30;99.90
4079;DHT22;2054;47.858;11.156;2023-12-04T07:03:17;-9.40;99.90
4079;DHT22;2054;47.858;11.156;2023-12-04T07:05:45;-9.40;99.90
4079;DHT22;2054;47.858;11.156;2023-12-04T07:08:11;-9.40;99.90
4079;DHT22;2054;47.858;11.156;2023-12-04T07:10:38;-9.40;99.90
4079;DHT22;2054;47.858;11.156;2023-12-04T07:13:07;-9.50;99.90
4079;DHT22;2054;47.858;11.156;2023-12-04T07:15:34;-9.50;99.90
4079;DHT22;2054;47.858;11.156;2023-12-04T07:18:03;-9.30;99.90
4079;DHT22;2054;47.858;11.156;2023-12-04T07:20:30;-9.20;99.90
4079;DHT22;2054;47.858;11.156;2023-12-04T07:22:57;-9.10;99.90
4079;DHT22;2054;47.858;11.156;2023-12-04T07:25:24;-9.10;99.90
4079;DHT22;2054;47.858;11.156;2023-12-04T07:27:52;-9.00;99.90
4079;DHT22;2054;47.858;11.156;2023-12-04T07:30:20;-9.00;99.90
4079;DHT22;2054;47.858;11.156;2023-12-04T07:32:49;-9.00;99.90
4079;DHT22;2054;47.858;11.156;2023-12-04T07:35:16;-8.90;99.90
4079;DHT22;2054;47.858;11.156;2023-12-04T07:37:44;-8.90;99.90
4079;DHT22;2054;47.858;11.156;2023-12-04T07:40:12;-8.90;99.90
4079;DHT22;2054;47.858;11.156;2023-12-04T07:42:39;-8.80;99.90
4079;DHT22;2054;47.858;11.156;2023-12-04T07:45:07;-8.80;99.90
4079;DHT22;2054;47.858;11.156;2023-12-04T07:47:37;-8.80;99.90
4079;DHT22;2054;47.858;11.156;2023-12-04T07:50:05;-8.80;99.90
4079;DHT22;2054;47.858;11.156;2023-12-04T07:52:32;-8.80;99.90
4079;DHT22;2054;47.858;11.156;2023-12-04T07:54:59;-8.80;99.90
4079;DHT22;2054;47.858;11.156;2023-12-04T07:57:26;-8.80;99.90
4079;DHT22;2054;47.858;11.156;2023-12-04T07:59:53;-8.90;99.90
4079;DHT22;2054;47.858;11.156;2023-12-04T08:02:20;-8.80;99.90
4079;DHT22;2054;47.858;11.156;2023-12-04T08:04:48;-8.60;99.90
4079;DHT22;2054;47.858;11.156;2023-12-04T08:07:15;-8.50;99.90
4079;DHT22;2054;47.858;11.156;2023-12-04T08:09:42;-8.50;99.90
4079;DHT22;2054;47.858;11.156;2023-12-04T08:12:09;-8.40;99.90
4079;DHT22;2054;47.858;11.156;2023-12-04T08:14:35;-8.30;99.90
4079;DHT22;2054;47.858;11.156;2023-12-04T08:17:02;-8.40;99.90
4079;DHT22;2054;47.858;11.156;2023-12-04T08:19:29;-8.30;99.90
4079;DHT22;2054;47.858;11.156;2023-12-04T08:21:58;-8.20;99.90
4079;DHT22;2054;47.858;11.156;2023-12-04T08:24:25;-7.90;99.90
4079;DHT22;2054;47.858;11.156;2023-12-04T08:26:52;-7.80;99.90
4079;DHT22;2054;47.858;11.156;2023-12-04T08:29:19;-7.70;99.90
4079;DHT22;2054;47.858;11.156;2023-12-04T08:31:47;-7.50;99.90
4079;DHT22;2054;47.858;11.156;2023-12-04T08:34:14;-7.20;99.90
4079;DHT22;2054;47.858;11.156;2023-12-04T08:36:42;-6.90;99.90
4079;DHT22;2054;47.858;11.156;2023-12-04T08:39:11;-6.80;99.90
4079;DHT22;2054;47.858;11.156;2023-12-04T08:41:38;-6.60;99.90
4079;DHT22;2054;47.858;11.156;2023-12-04T08:44:05;-6.40;99.90
4079;DHT22;2054;47.858;11.156;2023-12-04T08:46:32;-6.10;99.90
4079;DHT22;2054;47.858;11.156;2023-12-04T08:48:59;-6.00;99.90
4079;DHT22;2054;47.858;11.156;2023-12-04T08:51:26;-5.80;99.90
4079;DHT22;2054;47.858;11.156;2023-12-04T08:53:52;-5.60;99.90
4079;DHT22;2054;47.858;11.156;2023-12-04T08:56:21;-5.50;99.90
4079;DHT22;2054;47.858;11.156;2023-12-04T08:58:48;-5.50;99.90
4079;DHT22;2054;47.858;11.156;2023-12-04T09:01:16;-5.30;99.90
4079;DHT22;2054;47.858;11.156;2023-12-04T09:03:43;-5.30;99.90
4079;DHT22;2054;47.858;11.156;2023-12-04T09:06:10;-5.00;99.90
4079;DHT22;2054;47.858;11.156;2023-12-04T09:08:37;-4.80;99.90
4079;DHT22;2054;47.858;11.156;2023-12-04T09:11:04;-4.60;99.90
4079;DHT22;2054;47.858;11.156;2023-12-04T09:13:32;-4.60;99.90
4079;DHT22;2054;47.858;11.156;2023-12-04T09:16:00;-4.60;99.90
4079;DHT22;2054;47.858;11.156;2023-12-04T09:18:27;-4.60;99.90
4079;DHT22;2054;47.858;11.156;2023-12-04T09:20:54;-4.60;99.90
4079;DHT22;2054;47.858;11.156;2023-12-04T09:23:21;-4.60;99.90
4079;DHT22;2054;47.858;11.156;2023-12-04T09:25:48;-4.50;99.90
4079;DHT22;2054;47.858;11.156;2023-12-04T09:28:15;-4.30;99.90
4079;DHT22;2054;47.858;11.156;2023-12-04T09:30:43;-4.20;99.90
4079;DHT22;2054;47.858;11.156;2023-12-04T09:33:10;-4.00;99.90
4079;DHT22;2054;47.858;11.156;2023-12-04T09:35:37;-3.80;99.90
4079;DHT22;2054;47.858;11.156;2023-12-04T09:38:04;-3.70;99.90
4079;DHT22;2054;47.858;11.156;2023-12-04T09:40:31;-3.80;99.90
4079;DHT22;2054;47.858;11.156;2023-12-04T09:43:00;-3.70;99.90
4079;DHT22;2054;47.858;11.156;2023-12-04T09:45:29;-3.70;99.90
4079;DHT22;2054;47.858;11.156;2023-12-04T09:48:00;-3.90;99.90
4079;DHT22;2054;47.858;11.156;2023-12-04T09:50:27;-3.80;99.90
4079;DHT22;2054;47.858;11.156;2023-12-04T09:52:55;-3.60;99.90
4079;DHT22;2054;47.858;11.156;2023-12-04T09:55:24;-3.50;99.90
4079;DHT22;2054;47.858;11.156;2023-12-04T09:57:52;-3.40;99.90
4079;DHT22;2054;47.858;11.156;2023-12-04T10:00:21;-3.40;99.90
4079;DHT22;2054;47.858;11.156;2023-12-04T10:02:48;-3.30;99.90
4079;DHT22;2054;47.858;11.156;2023-12-04T10:05:19;-3.30;99.90
4079;DHT22;2054;47.858;11.156;2023-12-04T10:07:46;-3.20;99.90
4079;DHT22;2054;47.858;11.156;2023-12-04T10:10:13;-3.10;99.90
4079;DHT22;2054;47.858;11.156;2023-12-04T10:12:40;-2.90;99.90
4079;DHT22;2054;47.858;11.156;2023-12-04T10:15:09;-2.70;99.90
4079;DHT22;2054;47.858;11.156;2023-12-04T10:17:37;-2.50;99.90
4079;DHT22;2054;47.858;11.156;2023-12-04T10:20:06;-2.50;99.90
4079;DHT22;2054;47.858;11.156;2023-12-04T10:22:39;-2.40;99.90
4079;DHT22;2054;47.858;11.156;2023-12-04T10:25:14;-2.40;99.90
4079;DHT22;2054;47.858;11.156;2023-12-04T10:27:41;-2.50;99.90
4079;DHT22;2054;47.858;11.156;2023-12-04T10:30:10;-2.50;99.90
4079;DHT22;2054;47.858;11.156;2023-12-04T10:32:41;-2.50;99.90
4079;DHT22;2054;47.858;11.156;2023-12-04T10:35:08;-2.30;99.90
4079;DHT22;2054;47.858;11.156;2023-12-04T10:37:37;-2.20;99.90
4079;DHT22;2054;47.858;11.156;2023-12-04T10:40:05;-1.90;99.90
4079;DHT22;2054;47.858;11.156;2023-12-04T10:42:34;-1.70;99.90
4079;DHT22;2054;47.858;11.156;2023-12-04T10:45:01;-1.70;99.90
4079;DHT22;2054;47.858;11.156;2023-12-04T10:47:34;-1.70;99.90
4079;DHT22;2054;47.858;11.156;2023-12-04T10:50:02;-1.50;99.90
4079;DHT22;2054;47.858;11.156;2023-12-04T10:52:31;-1.40;99.90
4079;DHT22;2054;47.858;11.156;2023-12-04T10:55:00;-1.40;99.90
4079;DHT22;2054;47.858;11.156;2023-12-04T10:57:29;-1.30;99.90
4079;DHT22;2054;47.858;11.156;2023-12-04T11:00:00;-1.50;99.90
4079;DHT22;2054;47.858;11.156;2023-12-04T11:02:29;-1.90;99.90
4079;DHT22;2054;47.858;11.156;2023-12-04T11:05:05;-1.70;99.90
4079;DHT22;2054;47.858;11.156;2023-12-04T11:07:41;-1.50;99.90
4079;DHT22;2054;47.858;11.156;2023-12-04T11:10:12;-1.60;99.90
4079;DHT22;2054;47.858;11.156;2023-12-04T11:12:40;-1.60;99.90
4079;DHT22;2054;47.858;11.156;2023-12-04T11:15:14;-1.60;99.90
4079;DHT22;2054;47.858;11.156;2023-12-04T11:17:45;-1.60;99.90
4079;DHT22;2054;47.858;11.156;2023-12-04T11:20:17;-1.40;99.90
4079;DHT22;2054;47.858;11.156;2023-12-04T11:22:45;-1.50;99.90
4079;DHT22;2054;47.858;11.156;2023-12-04T11:25:15;-1.70;99.90
4079;DHT22;2054;47.858;11.156;2023-12-04T11:27:43;-1.80;99.90
4079;DHT22;2054;47.858;11.156;2023-12-04T11:30:11;-2.10;99.90
4079;DHT22;2054;47.858;11.156;2023-12-04T11:32:45;-2.50;99.90
4079;DHT22;2054;47.858;11.156;2023-12-04T11:35:13;-2.50;99.90
4079;DHT22;2054;47.858;11.156;2023-12-04T11:37:42;-2.30;99.90
4079;DHT22;2054;47.858;11.156;2023-12-04T11:40:11;-2.10;99.90
4079;DHT22;2054;47.858;11.156;2023-12-04T11:42:41;-2.10;99.90
4079;DHT22;2054;47.858;11.156;2023-12-04T11:45:09;-2.20;99.90
4079;DHT22;2054;47.858;11.156;2023-12-04T11:47:57;-2.10;99.90
4079;DHT22;2054;47.858;11.156;2023-12-04T11:50:24;-1.90;99.90
4079;DHT22;2054;47.858;11.156;2023-12-04T11:52:51;-1.90;99.90
4079;DHT22;2054;47.858;11.156;2023-12-04T11:55:20;-1.90;99.90
4079;DHT22;2054;47.858;11.156;2023-12-04T11:57:51;-1.80;99.90
4079;DHT22;2054;47.858;11.156;2023-12-04T12:00:22;-1.60;99.90
4079;DHT22;2054;47.858;11.156;2023-12-04T12:03:03;-1.40;99.90
4079;DHT22;2054;47.858;11.156;2023-12-04T12:05:36;-1.30;99.90
4079;DHT22;2054;47.858;11.156;2023-12-04T12:08:05;-1.20;99.90
4079;DHT22;2054;47.858;11.156;2023-12-04T12:10:33;-1.10;99.90
4079;DHT22;2054;47.858;11.156;2023-12-04T12:13:02;-1.10;99.90
4079;DHT22;2054;47.858;11.156;2023-12-04T12:15:29;-1.10;99.90
4079;DHT22;2054;47.858;11.156;2023-12-04T12:17:56;-1.10;99.90
4079;DHT22;2054;47.858;11.156;2023-12-04T12:20:23;-1.00;99.90
4079;DHT22;2054;47.858;11.156;2023-12-04T12:22:50;-1.00;99.90
4079;DHT22;2054;47.858;11.156;2023-12-04T12:25:17;-0.90;99.90
4079;DHT22;2054;47.858;11.156;2023-12-04T12:27:45;-0.50;99.90
4079;DHT22;2054;47.858;11.156;2023-12-04T12:30:13;-0.10;99.90
4079;DHT22;2054;47.858;11.156;2023-12-04T12:32:40;-0.20;99.90
4079;DHT22;2054;47.858;11.156;2023-12-04T12:35:07;-0.30;99.90
4079;DHT22;2054;47.858;11.156;2023-12-04T12:37:37;-0.60;99.90
4079;DHT22;2054;47.858;11.156;2023-12-04T12:40:06;-0.40;99.90
4079;DHT22;2054;47.858;11.156;2023-12-04T12:42:35;-0.30;99.90
4079;DHT22;2054;47.858;11.156;2023-12-04T12:45:04;-0.50;99.90
4079;DHT22;2054;47.858;11.156;2023-12-04T12:47:33;-0.40;99.90
4079;DHT22;2054;47.858;11.156;2023-12-04T12:50:01;-0.50;99.90
4079;DHT22;2054;47.858;11.156;2023-12-04T12:52:29;-0.60;99.90
4079;DHT22;2054;47.858;11.156;2023-12-04T12:54:57;-0.50;99.90
4079;DHT22;2054;47.858;11.156;2023-12-04T12:57:24;-0.60;99.90
4079;DHT22;2054;47.858;11.156;2023-12-04T12:59:52;-0.60;99.90
4079;DHT22;2054;47.858;11.156;2023-12-04T13:02:20;-0.70;99.90
4079;DHT22;2054;47.858;11.156;2023-12-04T13:04:48;-0.70;99.90
4079;DHT22;2054;47.858;11.156;2023-12-04T13:07:17;-0.70;99.90
4079;DHT22;2054;47.858;11.156;2023-12-04T13:09:46;-0.60;99.90
4079;DHT22;2054;47.858;11.156;2023-12-04T13:12:14;-0.50;99.90
4079;DHT22;2054;47.858;11.156;2023-12-04T13:14:41;-0.40;99.90
4079;DHT22;2054;47.858;11.156;2023-12-04T13:17:08;-0.30;99.90
4079;DHT22;2054;47.858;11.156;2023-12-04T13:19:35;0.00;99.90
4079;DHT22;2054;47.858;11.156;2023-12-04T13:22:04;-0.10;99.90
4079;DHT22;2054;47.858;11.156;2023-12-04T13:24:32;-0.10;99.90
4079;DHT22;2054;47.858;11.156;2023-12-04T13:26:58;0.00;99.90
4079;DHT22;2054;47.858;11.156;2023-12-04T13:29:25;-0.10;99.90
4079;DHT22;2054;47.858;11.156;2023-12-04T13:31:53;-0.10;99.90
4079;DHT22;2054;47.858;11.156;2023-12-04T13:34:20;0.10;99.90
4079;DHT22;2054;47.858;11.156;2023-12-04T13:36:47;0.20;99.90
4079;DHT22;2054;47.858;11.156;2023-12-04T13:39:16;0.30;99.90
4079;DHT22;2054;47.858;11.156;2023-12-04T13:41:48;0.30;99.90
4079;DHT22;2054;47.858;11.156;2023-12-04T13:44:32;-0.10;99.90
4079;DHT22;2054;47.858;11.156;2023-12-04T13:47:00;-0.20;99.90
4079;DHT22;2054;47.858;11.156;2023-12-04T13:49:27;-0.10;99.90
4079;DHT22;2054;47.858;11.156;2023-12-04T13:51:54;-0.10;99.90
4079;DHT22;2054;47.858;11.156;2023-12-04T13:54:25;-0.30;99.90
4079;DHT22;2054;47.858;11.156;2023-12-04T13:57:07;-0.60;99.90
4079;DHT22;2054;47.858;11.156;2023-12-04T13:59:38;-0.90;99.90
4079;DHT22;2054;47.858;11.156;2023-12-04T14:02:06;-1.00;99.90
4079;DHT22;2054;47.858;11.156;2023-12-04T14:04:36;-0.90;99.90
4079;DHT22;2054;47.858;11.156;2023-12-04T14:07:04;-0.80;99.90
4079;DHT22;2054;47.858;11.156;2023-12-04T14:09:35;-0.70;99.90
4079;DHT22;2054;47.858;11.156;2023-12-04T14:12:02;-0.50;99.90
4079;DHT22;2054;47.858;11.156;2023-12-04T14:14:29;-0.50;99.90
4079;DHT22;2054;47.858;11.156;2023-12-04T14:16:56;-0.40;99.90
4079;DHT22;2054;47.858;11.156;2023-12-04T14:19:23;-0.50;99.90
4079;DHT22;2054;47.858;11.156;2023-12-04T14:21:50;-0.60;99.90
4079;DHT22;2054;47.858;11.156;2023-12-04T14:24:17;-0.70;99.90
4079;DHT22;2054;47.858;11.156;2023-12-04T14:26:45;-0.90;99.90
4079;DHT22;2054;47.858;11.156;2023-12-04T14:29:15;-1.00;99.90
4079;DHT22;2054;47.858;11.156;2023-12-04T14:31:42;-1.10;99.90
4079;DHT22;2054;47.858;11.156;2023-12-04T14:34:09;-1.30;99.90
4079;DHT22;2054;47.858;11.156;2023-12-04T14:36:35;-1.30;99.90
4079;DHT22;2054;47.858;11.156;2023-12-04T14:39:04;-1.20;99.90
4079;DHT22;2054;47.858;11.156;2023-12-04T14:41:31;-1.40;99.90
4079;DHT22;2054;47.858;11.156;2023-12-04T14:44:00;-1.60;99.90
4079;DHT22;2054;47.858;11.156;2023-12-04T14:46:27;-1.50;99.90
4079;DHT22;2054;47.858;11.156;2023-12-04T14:48:54;-1.40;99.90
4079;DHT22;2054;47.858;11.156;2023-12-04T14:51:21;-1.60;99.90
4079;DHT22;2054;47.858;11.156;2023-12-04T14:53:49;-1.70;99.90
4079;DHT22;2054;47.858;11.156;2023-12-04T14:56:29;-1.80;99.90
4079;DHT22;2054;47.858;11.156;2023-12-04T14:59:15;-1.80;99.90
4079;DHT22;2054;47.858;11.156;2023-12-04T15:02:11;-1.80;99.90
4079;DHT22;2054;47.858;11.156;2023-12-04T15:04:53;-1.70;99.90
4079;DHT22;2054;47.858;11.156;2023-12-04T15:07:34;-1.70;99.90
4079;DHT22;2054;47.858;11.156;2023-12-04T15:10:21;-1.70;99.90
4079;DHT22;2054;47.858;11.156;2023-12-04T15:13:15;-1.80;99.90
4079;DHT22;2054;47.858;11.156;2023-12-04T15:16:01;-1.90;99.90
4079;DHT22;2054;47.858;11.156;2023-12-04T15:18:45;-1.90;99.90
4079;DHT22;2054;47.858;11.156;2023-12-04T15:21:35;-1.80;99.90
4079;DHT22;2054;47.858;11.156;2023-12-04T15:24:03;-1.80;99.90
4079;DHT22;2054;47.858;11.156;2023-12-04T15:26:30;-1.90;99.90
4079;DHT22;2054;47.858;11.156;2023-12-04T15:28:57;-2.00;99.90
4079;DHT22;2054;47.858;11.156;2023-12-04T15:31:24;-2.10;99.90
4079;DHT22;2054;47.858;11.156;2023-12-04T15:33:52;-2.30;99.90
4079;DHT22;2054;47.858;11.156;2023-12-04T15:36:18;-2.40;99.90
4079;DHT22;2054;47.858;11.156;2023-12-04T15:38:47;-2.50;99.90
4079;DHT22;2054;47.858;11.156;2023-12-04T15:41:13;-2.50;99.90
4079;DHT22;2054;47.858;11.156;2023-12-04T15:43:42;-2.50;99.90
4079;DHT22;2054;47.858;11.156;2023-12-04T15:46:10;-2.50;99.90
4079;DHT22;2054;47.858;11.156;2023-12-04T15:48:40;-2.50;99.90
4079;DHT22;2054;47.858;11.156;2023-12-04T15:51:06;-2.30;99.90
4079;DHT22;2054;47.858;11.156;2023-12-04T15:53:33;-2.30;99.90
4079;DHT22;2054;47.858;11.156;2023-12-04T15:56:00;-2.30;99.90
4079;DHT22;2054;47.858;11.156;2023-12-04T15:58:33;-2.40;99.90
4079;DHT22;2054;47.858;11.156;2023-12-04T16:00:59;-2.50;99.90
4079;DHT22;2054;47.858;11.156;2023-12-04T16:03:30;-2.50;99.90
4079;DHT22;2054;47.858;11.156;2023-12-04T16:05:59;-2.50;99.90
4079;DHT22;2054;47.858;11.156;2023-12-04T16:08:26;-2.50;99.90
4079;DHT22;2054;47.858;11.156;2023-12-04T16:10:52;-2.50;99.90
4079;DHT22;2054;47.858;11.156;2023-12-04T16:13:19;-2.50;99.90
4079;DHT22;2054;47.858;11.156;2023-12-04T16:15:46;-2.40;99.90
4079;DHT22;2054;47.858;11.156;2023-12-04T16:18:14;-2.30;99.90
4079;DHT22;2054;47.858;11.156;2023-12-04T16:20:41;-2.30;99.90
4079;DHT22;2054;47.858;11.156;2023-12-04T16:23:09;-2.30;99.90
4079;DHT22;2054;47.858;11.156;2023-12-04T16:25:36;-2.20;99.90
4079;DHT22;2054;47.858;11.156;2023-12-04T16:28:03;-2.10;99.90
4079;DHT22;2054;47.858;11.156;2023-12-04T16:30:33;-2.10;99.90
4079;DHT22;2054;47.858;11.156;2023-12-04T16:33:00;-2.00;99.90
4079;DHT22;2054;47.858;11.156;2023-12-04T16:35:27;-2.10;99.90
4079;DHT22;2054;47.858;11.156;2023-12-04T16:37:54;-2.00;99.90
4079;DHT22;2054;47.858;11.156;2023-12-04T16:40:23;-2.00;99.90
4079;DHT22;2054;47.858;11.156;2023-12-04T16:42:50;-1.90;99.90
4079;DHT22;2054;47.858;11.156;2023-12-04T16:45:32;-1.90;99.90
4079;DHT22;2054;47.858;11.156;2023-12-04T16:47:59;-1.90;99.90
4079;DHT22;2054;47.858;11.156;2023-12-04T16:50:27;-2.00;99.90
4079;DHT22;2054;47.858;11.156;2023-12-04T16:52:55;-1.90;99.90
4079;DHT22;2054;47.858;11.156;2023-12-04T16:55:23;-2.00;99.90
4079;DHT22;2054;47.858;11.156;2023-12-04T16:57:50;-2.00;99.90
4079;DHT22;2054;47.858;11.156;2023-12-04T17:00:17;-2.10;99.90
4079;DHT22;2054;47.858;11.156;2023-12-04T17:02:44;-2.00;99.90
4079;DHT22;2054;47.858;11.156;2023-12-04T17:08:35;-2.10;99.90
4079;DHT22;2054;47.858;11.156;2023-12-04T17:11:04;-2.10;99.90
4079;DHT22;2054;47.858;11.156;2023-12-04T17:13:35;-2.10;99.90
4079;DHT22;2054;47.858;11.156;2023-12-04T17:16:03;-2.10;99.90
4079;DHT22;2054;47.858;11.156;2023-12-04T17:18:30;-2.10;99.90
4079;DHT22;2054;47.858;11.156;2023-12-04T17:20:57;-2.10;99.90
4079;DHT22;2054;47.858;11.156;2023-12-04T17:23:24;-2.10;99.90
4079;DHT22;2054;47.858;11.156;2023-12-04T17:25:53;-2.40;99.90
4079;DHT22;2054;47.858;11.156;2023-12-04T17:28:22;-2.10;99.90
4079;DHT22;2054;47.858;11.156;2023-12-04T17:30:52;-2.10;99.90
4079;DHT22;2054;47.858;11.156;2023-12-04T17:33:19;-2.10;99.90
4079;DHT22;2054;47.858;11.156;2023-12-04T17:35:46;-2.10;99.90
4079;DHT22;2054;47.858;11.156;2023-12-04T17:38:13;-2.20;99.90
4079;DHT22;2054;47.858;11.156;2023-12-04T17:40:40;-2.30;99.90
4079;DHT22;2054;47.858;11.156;2023-12-04T17:43:07;-2.20;99.90
4079;DHT22;2054;47.858;11.156;2023-12-04T17:45:36;-2.20;99.90
4079;DHT22;2054;47.858;11.156;2023-12-04T17:48:04;-2.20;99.90
4079;DHT22;2054;47.858;11.156;2023-12-04T17:50:32;-2.20;99.90
4079;DHT22;2054;47.858;11.156;2023-12-04T17:52:59;-2.20;99.90
4079;DHT22;2054;47.858;11.156;2023-12-04T17:55:26;-2.10;99.90
4079;DHT22;2054;47.858;11.156;2023-12-04T17:57:53;-2.00;99.90
4079;DHT22;2054;47.858;11.156;2023-12-04T18:00:21;-2.10;99.90
4079;DHT22;2054;47.858;11.156;2023-12-04T18:02:50;-2.00;99.90
4079;DHT22;2054;47.858;11.156;2023-12-04T18:05:17;-2.00;99.90
4079;DHT22;2054;47.858;11.156;2023-12-04T18:07:45;-1.90;99.90
4079;DHT22;2054;47.858;11.156;2023-12-04T18:10:12;-1.90;99.90
4079;DHT22;2054;47.858;11.156;2023-12-04T18:12:39;-1.80;99.90
4079;DHT22;2054;47.858;11.156;2023-12-04T18:15:07;-1.80;99.90
4079;DHT22;2054;47.858;11.156;2023-12-04T18:17:35;-1.90;99.90
4079;DHT22;2054;47.858;11.156;2023-12-04T18:20:09;-2.10;99.90
4079;DHT22;2054;47.858;11.156;2023-12-04T18:22:36;-2.20;99.90
4079;DHT22;2054;47.858;11.156;2023-12-04T18:25:04;-2.10;99.90
4079;DHT22;2054;47.858;11.156;2023-12-04T18:27:32;-2.10;99.90
4079;DHT22;2054;47.858;11.156;2023-12-04T18:30:00;-2.30;99.90
4079;DHT22;2054;47.858;11.156;2023-12-04T18:32:30;-2.30;99.90
4079;DHT22;2054;47.858;11.156;2023-12-04T18:34:57;-2.20;99.90
4079;DHT22;2054;47.858;11.156;2023-12-04T18:37:31;-2.10;99.90
4079;DHT22;2054;47.858;11.156;2023-12-04T18:39:59;-1.90;99.90
4079;DHT22;2054;47.858;11.156;2023-12-04T18:42:27;-2.10;99.90
4079;DHT22;2054;47.858;11.156;2023-12-04T18:44:56;-2.20;99.90
4079;DHT22;2054;47.858;11.156;2023-12-04T18:47:27;-2.10;99.90
4079;DHT22;2054;47.858;11.156;2023-12-04T18:49:57;-2.10;99.90
4079;DHT22;2054;47.858;11.156;2023-12-04T18:52:26;-2.00;99.90
4079;DHT22;2054;47.858;11.156;2023-12-04T18:55:01;-1.90;99.90
4079;DHT22;2054;47.858;11.156;2023-12-04T18:57:29;-1.80;99.90
4079;DHT22;2054;47.858;11.156;2023-12-04T18:59:59;-1.70;99.90
4079;DHT22;2054;47.858;11.156;2023-12-04T19:02:29;-1.70;99.90
4079;DHT22;2054;47.858;11.156;2023-12-04T19:04:56;-1.60;99.90
4079;DHT22;2054;47.858;11.156;2023-12-04T19:07:23;-1.60;99.90
4079;DHT22;2054;47.858;11.156;2023-12-04T19:09:51;-1.50;99.90
4079;DHT22;2054;47.858;11.156;2023-12-04T19:12:18;-1.50;99.90
4079;DHT22;2054;47.858;11.156;2023-12-04T19:14:46;-1.40;99.90
4079;DHT22;2054;47.858;11.156;2023-12-04T19:17:12;-1.40;99.90
4079;DHT22;2054;47.858;11.156;2023-12-04T19:19:41;-1.30;99.90
4079;DHT22;2054;47.858;11.156;2023-12-04T19:22:08;-1.30;99.90
4079;DHT22;2054;47.858;11.156;2023-12-04T19:24:35;-1.40;99.90
4079;DHT22;2054;47.858;11.156;2023-12-04T19:27:03;-1.50;99.90
4079;DHT22;2054;47.858;11.156;2023-12-04T19:29:30;-1.30;99.90
4079;DHT22;2054;47.858;11.156;2023-12-04T19:31:57;-1.40;99.90
4079;DHT22;2054;47.858;11.156;2023-12-04T19:34:24;-1.20;99.90
4079;DHT22;2054;47.858;11.156;2023-12-04T19:36:52;-1.20;99.90
4079;DHT22;2054;47.858;11.156;2023-12-04T19:39:19;-1.20;99.90
4079;DHT22;2054;47.858;11.156;2023-12-04T19:41:46;-1.10;99.90